sensor_id;sensor_type;location;lat;lon;timestamp;pressure;altitude;pressure_sealevel;temperature;humidity
50867;BME280;36839;51.946;21.002;2023-05-10T00:02:17;100754.01;;;6.56;68.44
50867;BME280;36839;51.946;21.002;2023-05-10T00:04:44;100752.47;;;6.54;68.26
50867;BME280;36839;51.946;21.002;2023-05-10T00:07:12;100752.26;;;6.53;68.62
50867;BME280;36839;51.946;21.002;2023-05-10T00:09:40;100751.55;;;6.51;68.59
50867;BME280;36839;51.946;21.002;2023-05-10T00:12:10;100749.57;;;6.51;68.91
50867;BME280;36839;51.946;21.002;2023-05-10T00:14:40;100751.35;;;6.50;69.53
50867;BME280;36839;51.946;21.002;2023-05-10T00:17:13;100752.04;;;6.47;69.59
50867;BME280;36839;51.946;21.002;2023-05-10T00:19:46;100745.74;;;6.44;69.27
50867;BME280;36839;51.946;21.002;2023-05-10T00:22:21;100740.64;;;6.40;69.81
50867;BME280;36839;51.946;21.002;2023-05-10T00:24:47;100737.20;;;6.36;70.49
50867;BME280;36839;51.946;21.002;2023-05-10T00:27:14;100732.70;;;6.34;70.46
50867;BME280;36839;51.946;21.002;2023-05-10T00:29:40;100735.27;;;6.31;70.39
50867;BME280;36839;51.946;21.002;2023-05-10T00:32:07;100733.85;;;6.27;70.59
50867;BME280;36839;51.946;21.002;2023-05-10T00:34:36;100735.79;;;6.22;71.09
50867;BME280;36839;51.946;21.002;2023-05-10T00:37:05;100733.65;;;6.18;70.76
50867;BME280;36839;51.946;21.002;2023-05-10T00:39:32;100733.05;;;6.15;71.33
50867;BME280;36839;51.946;21.002;2023-05-10T00:42:02;100735.20;;;6.12;71.01
50867;BME280;36839;51.946;21.002;2023-05-10T00:44:31;100733.36;;;6.06;71.76
50867;BME280;36839;51.946;21.002;2023-05-10T00:46:59;100728.21;;;6.00;71.80
50867;BME280;36839;51.946;21.002;2023-05-10T00:49:28;100730.29;;;5.94;72.53
50867;BME280;36839;51.946;21.002;2023-05-10T00:51:56;100731.09;;;5.89;72.81
50867;BME280;36839;51.946;21.002;2023-05-10T00:54:23;100733.47;;;5.85;73.31
50867;BME280;36839;51.946;21.002;2023-05-10T00:56:51;100726.16;;;5.83;73.24
50867;BME280;36839;51.946;21.002;2023-05-10T00:59:19;100725.88;;;5.79;73.98
50867;BME280;36839;51.946;21.002;2023-05-10T01:01:49;100723.99;;;5.73;74.52
50867;BME280;36839;51.946;21.002;2023-05-10T01:04:16;100723.45;;;5.66;75.23
50867;BME280;36839;51.946;21.002;2023-05-10T01:06:46;100723.21;;;5.57;76.33
50867;BME280;36839;51.946;21.002;2023-05-10T01:09:17;100720.40;;;5.46;77.29
50867;BME280;36839;51.946;21.002;2023-05-10T01:11:49;100716.76;;;5.35;77.82
50867;BME280;36839;51.946;21.002;2023-05-10T01:14:21;100718.91;;;5.24;78.74
50867;BME280;36839;51.946;21.002;2023-05-10T01:16:49;100714.27;;;5.18;78.86
50867;BME280;36839;51.946;21.002;2023-05-10T01:19:19;100714.99;;;5.13;79.36
50867;BME280;36839;51.946;21.002;2023-05-10T01:33:30;100712.05;;;4.56;85.02
50867;BME280;36839;51.946;21.002;2023-05-10T01:36:13;100719.82;;;4.43;86.12
50867;BME280;36839;51.946;21.002;2023-05-10T01:38:54;100721.08;;;4.34;86.73
50867;BME280;36839;51.946;21.002;2023-05-10T01:41:39;100718.73;;;4.24;88.02
50867;BME280;36839;51.946;21.002;2023-05-10T01:44:34;100714.73;;;4.16;88.46
50867;BME280;36839;51.946;21.002;2023-05-10T01:47:12;100718.86;;;4.10;89.07
50867;BME280;36839;51.946;21.002;2023-05-10T01:50:16;100713.08;;;4.05;89.96
50867;BME280;36839;51.946;21.002;2023-05-10T01:53:17;100715.52;;;3.96;90.80
50867;BME280;36839;51.946;21.002;2023-05-10T01:55:47;100708.72;;;3.90;91.64
50867;BME280;36839;51.946;21.002;2023-05-10T01:58:29;100706.23;;;3.88;91.54
50867;BME280;36839;51.946;21.002;2023-05-10T02:01:01;100708.63;;;3.88;91.77
50867;BME280;36839;51.946;21.002;2023-05-10T02:03:31;100708.50;;;3.88;91.79
50867;BME280;36839;51.946;21.002;2023-05-10T02:06:02;100707.36;;;3.87;92.13
50867;BME280;36839;51.946;21.002;2023-05-10T02:08:30;100701.08;;;3.84;92.16
50867;BME280;36839;51.946;21.002;2023-05-10T02:10:59;100701.67;;;3.82;92.35
50867;BME280;36839;51.946;21.002;2023-05-10T02:13:29;100703.58;;;3.80;92.26
50867;BME280;36839;51.946;21.002;2023-05-10T02:16:01;100703.48;;;3.80;92.22
50867;BME280;36839;51.946;21.002;2023-05-10T02:18:29;100703.36;;;3.78;92.57
50867;BME280;36839;51.946;21.002;2023-05-10T02:20:57;100704.08;;;3.77;92.88
50867;BME280;36839;51.946;21.002;2023-05-10T02:23:25;100699.52;;;3.74;93.35
50867;BME280;36839;51.946;21.002;2023-05-10T02:25:54;100699.44;;;3.72;93.35
50867;BME280;36839;51.946;21.002;2023-05-10T02:28:28;100700.40;;;3.69;93.94
50867;BME280;36839;51.946;21.002;2023-05-10T02:30:55;100694.02;;;3.65;94.88
50867;BME280;36839;51.946;21.002;2023-05-10T02:33:23;100695.21;;;3.62;95.01
50867;BME280;36839;51.946;21.002;2023-05-10T02:35:50;100693.04;;;3.61;95.01
50867;BME280;36839;51.946;21.002;2023-05-10T02:38:20;100688.36;;;3.58;95.73
50867;BME280;36839;51.946;21.002;2023-05-10T02:40:48;100688.12;;;3.56;96.13
50867;BME280;36839;51.946;21.002;2023-05-10T02:43:22;100689.42;;;3.51;97.17
50867;BME280;36839;51.946;21.002;2023-05-10T02:45:51;100688.55;;;3.46;97.72
50867;BME280;36839;51.946;21.002;2023-05-10T02:48:19;100690.16;;;3.42;97.71
50867;BME280;36839;51.946;21.002;2023-05-10T02:51:00;100690.78;;;3.40;97.80
50867;BME280;36839;51.946;21.002;2023-05-10T02:53:34;100688.14;;;3.38;97.93
50867;BME280;36839;51.946;21.002;2023-05-10T02:56:05;100691.83;;;3.39;98.05
50867;BME280;36839;51.946;21.002;2023-05-10T02:58:35;100695.52;;;3.39;98.18
50867;BME280;36839;51.946;21.002;2023-05-10T03:01:03;100692.94;;;3.36;98.61
50867;BME280;36839;51.946;21.002;2023-05-10T03:03:32;100693.02;;;3.36;98.82
50867;BME280;36839;51.946;21.002;2023-05-10T03:05:59;100692.52;;;3.36;98.44
50867;BME280;36839;51.946;21.002;2023-05-10T03:08:26;100693.10;;;3.36;98.23
50867;BME280;36839;51.946;21.002;2023-05-10T03:16:27;100694.83;;;3.42;98.65
50867;BME280;36839;51.946;21.002;2023-05-10T03:22:08;100694.77;;;3.47;98.89
50867;BME280;36839;51.946;21.002;2023-05-10T03:24:41;100701.15;;;3.52;98.29
50867;BME280;36839;51.946;21.002;2023-05-10T03:27:09;100700.00;;;3.58;97.99
50867;BME280;36839;51.946;21.002;2023-05-10T03:29:39;100699.08;;;3.60;98.50
50867;BME280;36839;51.946;21.002;2023-05-10T03:32:06;100692.57;;;3.62;99.04
50867;BME280;36839;51.946;21.002;2023-05-10T03:34:41;100694.39;;;3.66;99.53
50867;BME280;36839;51.946;21.002;2023-05-10T03:37:15;100694.39;;;3.72;99.48
50867;BME280;36839;51.946;21.002;2023-05-10T03:39:46;100697.84;;;4.30;100.00
50867;BME280;36839;51.946;21.002;2023-05-10T03:42:29;100694.27;;;4.52;100.00
50867;BME280;36839;51.946;21.002;2023-05-10T03:44:56;100697.42;;;4.56;99.89
50867;BME280;36839;51.946;21.002;2023-05-10T03:47:23;100693.85;;;4.59;98.55
50867;BME280;36839;51.946;21.002;2023-05-10T03:49:53;100689.33;;;4.63;98.12
50867;BME280;36839;51.946;21.002;2023-05-10T03:52:23;100693.42;;;4.68;97.38
50867;BME280;36839;51.946;21.002;2023-05-10T03:54:52;100693.58;;;4.76;96.99
50867;BME280;36839;51.946;21.002;2023-05-10T03:57:19;100697.17;;;4.85;96.89
50867;BME280;36839;51.946;21.002;2023-05-10T03:59:46;100697.70;;;4.96;96.21
50867;BME280;36839;51.946;21.002;2023-05-10T04:02:13;100692.88;;;5.07;95.25
50867;BME280;36839;51.946;21.002;2023-05-10T04:04:42;100696.49;;;5.20;94.29
50867;BME280;36839;51.946;21.002;2023-05-10T04:07:09;100693.05;;;5.32;94.46
50867;BME280;36839;51.946;21.002;2023-05-10T04:09:37;100693.26;;;5.47;94.46
50867;BME280;36839;51.946;21.002;2023-05-10T04:12:05;100689.91;;;5.77;94.74
50867;BME280;36839;51.946;21.002;2023-05-10T04:14:33;100692.08;;;5.88;92.36
50867;BME280;36839;51.946;21.002;2023-05-10T04:17:01;100688.00;;;5.96;90.62
50867;BME280;36839;51.946;21.002;2023-05-10T04:19:31;100688.28;;;6.05;89.50
50867;BME280;36839;51.946;21.002;2023-05-10T04:22:01;100688.01;;;6.17;88.22
50867;BME280;36839;51.946;21.002;2023-05-10T04:24:35;100687.27;;;6.29;88.34
50867;BME280;36839;51.946;21.002;2023-05-10T04:27:01;100692.13;;;6.38;87.17
50867;BME280;36839;51.946;21.002;2023-05-10T04:29:29;100700.20;;;6.46;86.51
50867;BME280;36839;51.946;21.002;2023-05-10T04:31:58;100700.84;;;6.55;86.46
50867;BME280;36839;51.946;21.002;2023-05-10T04:34:25;100699.74;;;6.65;85.58
50867;BME280;36839;51.946;21.002;2023-05-10T04:36:51;100698.68;;;6.74;85.00
50867;BME280;36839;51.946;21.002;2023-05-10T04:39:21;100700.58;;;6.82;83.58
50867;BME280;36839;51.946;21.002;2023-05-10T04:41:48;100700.48;;;6.91;83.39
50867;BME280;36839;51.946;21.002;2023-05-10T04:44:17;100702.08;;;7.03;83.52
50867;BME280;36839;51.946;21.002;2023-05-10T04:46:44;100701.85;;;7.14;82.08
50867;BME280;36839;51.946;21.002;2023-05-10T04:49:12;100699.55;;;7.26;81.65
50867;BME280;36839;51.946;21.002;2023-05-10T04:51:40;100699.92;;;7.36;80.14
50867;BME280;36839;51.946;21.002;2023-05-10T04:54:08;100698.86;;;7.49;79.72
50867;BME280;36839;51.946;21.002;2023-05-10T04:56:40;100700.15;;;7.62;78.67
50867;BME280;36839;51.946;21.002;2023-05-10T04:59:09;100698.37;;;7.74;77.72
50867;BME280;36839;51.946;21.002;2023-05-10T05:01:45;100697.44;;;7.89;77.48
50867;BME280;36839;51.946;21.002;2023-05-10T05:04:15;100696.94;;;8.02;77.19
50867;BME280;36839;51.946;21.002;2023-05-10T05:06:43;100697.73;;;8.13;75.42
50867;BME280;36839;51.946;21.002;2023-05-10T05:09:09;100697.20;;;8.24;76.42
50867;BME280;36839;51.946;21.002;2023-05-10T05:11:36;100702.60;;;8.37;77.20
50867;BME280;36839;51.946;21.002;2023-05-10T05:14:03;100702.02;;;8.49;75.32
50867;BME280;36839;51.946;21.002;2023-05-10T05:16:32;100701.38;;;8.61;74.57
50867;BME280;36839;51.946;21.002;2023-05-10T05:19:00;100701.40;;;8.73;73.96
50867;BME280;36839;51.946;21.002;2023-05-10T05:22:01;100705.81;;;8.91;74.38
50867;BME280;36839;51.946;21.002;2023-05-10T05:24:35;100702.91;;;9.04;74.54
50867;BME280;36839;51.946;21.002;2023-05-10T05:27:07;100706.84;;;9.18;73.36
50867;BME280;36839;51.946;21.002;2023-05-10T05:29:38;100705.64;;;9.28;72.06
50867;BME280;36839;51.946;21.002;2023-05-10T05:32:05;100700.55;;;9.38;70.42
50867;BME280;36839;51.946;21.002;2023-05-10T05:34:33;100699.27;;;9.47;70.13
50867;BME280;36839;51.946;21.002;2023-05-10T05:37:06;100697.69;;;9.59;70.71
50867;BME280;36839;51.946;21.002;2023-05-10T05:39:37;100701.19;;;9.71;70.78
50867;BME280;36839;51.946;21.002;2023-05-10T05:42:09;100699.98;;;9.84;70.84
50867;BME280;36839;51.946;21.002;2023-05-10T05:44:40;100700.74;;;9.93;70.08
50867;BME280;36839;51.946;21.002;2023-05-10T05:47:14;100701.89;;;10.04;70.11
50867;BME280;36839;51.946;21.002;2023-05-10T05:49:46;100701.57;;;10.14;69.18
50867;BME280;36839;51.946;21.002;2023-05-10T05:52:14;100702.16;;;10.23;69.10
50867;BME280;36839;51.946;21.002;2023-05-10T05:56:14;100701.15;;;10.47;70.98
50867;BME280;36839;51.946;21.002;2023-05-10T05:58:43;100703.79;;;10.55;67.92
50867;BME280;36839;51.946;21.002;2023-05-10T06:01:17;100704.36;;;10.68;68.09
50867;BME280;36839;51.946;21.002;2023-05-10T06:03:44;100706.34;;;10.76;66.65
50867;BME280;36839;51.946;21.002;2023-05-10T06:06:14;100706.11;;;10.81;65.48
50867;BME280;36839;51.946;21.002;2023-05-10T06:08:42;100707.30;;;10.89;66.60
50867;BME280;36839;51.946;21.002;2023-05-10T06:11:11;100707.59;;;10.99;64.92
50867;BME280;36839;51.946;21.002;2023-05-10T06:13:40;100701.67;;;11.07;63.66
50867;BME280;36839;51.946;21.002;2023-05-10T06:16:07;100701.49;;;11.17;63.62
50867;BME280;36839;51.946;21.002;2023-05-10T06:18:35;100699.20;;;11.28;64.55
50867;BME280;36839;51.946;21.002;2023-05-10T06:21:03;100704.83;;;11.37;62.56
50867;BME280;36839;51.946;21.002;2023-05-10T06:23:33;100704.08;;;11.48;61.87
50867;BME280;36839;51.946;21.002;2023-05-10T06:26:02;100700.99;;;11.57;60.53
50867;BME280;36839;51.946;21.002;2023-05-10T06:28:45;100703.02;;;11.69;61.17
50867;BME280;36839;51.946;21.002;2023-05-10T06:31:13;100705.58;;;11.77;59.45
50867;BME280;36839;51.946;21.002;2023-05-10T06:33:46;100709.21;;;11.86;59.24
50867;BME280;36839;51.946;21.002;2023-05-10T06:36:15;100711.92;;;11.96;60.81
50867;BME280;36839;51.946;21.002;2023-05-10T06:38:53;100710.77;;;12.09;59.99
50867;BME280;36839;51.946;21.002;2023-05-10T06:41:22;100709.52;;;12.22;59.89
50867;BME280;36839;51.946;21.002;2023-05-10T06:43:54;100707.81;;;12.37;60.62
50867;BME280;36839;51.946;21.002;2023-05-10T06:46:24;100707.48;;;12.49;59.45
50867;BME280;36839;51.946;21.002;2023-05-10T06:48:52;100706.41;;;12.62;58.70
50867;BME280;36839;51.946;21.002;2023-05-10T06:51:20;100705.84;;;12.73;57.95
50867;BME280;36839;51.946;21.002;2023-05-10T06:53:51;100704.08;;;12.81;56.62
50867;BME280;36839;51.946;21.002;2023-05-10T06:56:20;100700.79;;;12.93;56.69
50867;BME280;36839;51.946;21.002;2023-05-10T06:58:49;100699.04;;;13.02;55.47
50867;BME280;36839;51.946;21.002;2023-05-10T07:01:19;100697.66;;;13.10;54.97
50867;BME280;36839;51.946;21.002;2023-05-10T07:03:47;100704.34;;;13.21;54.05
50867;BME280;36839;51.946;21.002;2023-05-10T07:06:15;100698.04;;;13.28;52.82
50867;BME280;36839;51.946;21.002;2023-05-10T07:08:42;100702.81;;;13.37;52.76
50867;BME280;36839;51.946;21.002;2023-05-10T07:11:13;100697.15;;;13.47;51.01
50867;BME280;36839;51.946;21.002;2023-05-10T07:13:40;100697.86;;;13.57;50.97
50867;BME280;36839;51.946;21.002;2023-05-10T07:16:16;100691.85;;;13.70;50.78
50867;BME280;36839;51.946;21.002;2023-05-10T07:18:47;100692.58;;;13.76;48.07
50867;BME280;36839;51.946;21.002;2023-05-10T07:21:14;100694.51;;;13.79;46.83
50867;BME280;36839;51.946;21.002;2023-05-10T07:23:45;100697.50;;;13.84;47.14
50867;BME280;36839;51.946;21.002;2023-05-10T07:26:15;100697.31;;;13.92;46.09
50867;BME280;36839;51.946;21.002;2023-05-10T07:28:45;100696.38;;;13.94;45.01
50867;BME280;36839;51.946;21.002;2023-05-10T07:31:13;100694.52;;;14.01;45.44
50867;BME280;36839;51.946;21.002;2023-05-10T07:33:42;100697.88;;;14.12;46.47
50867;BME280;36839;51.946;21.002;2023-05-10T07:36:10;100694.67;;;14.23;45.66
50867;BME280;36839;51.946;21.002;2023-05-10T07:38:39;100705.16;;;14.29;43.94
50867;BME280;36839;51.946;21.002;2023-05-10T07:41:07;100700.56;;;14.37;43.84
50867;BME280;36839;51.946;21.002;2023-05-10T07:43:38;100696.27;;;14.49;45.86
50867;BME280;36839;51.946;21.002;2023-05-10T07:46:13;100700.43;;;14.63;43.78
50867;BME280;36839;51.946;21.002;2023-05-10T07:48:45;100696.20;;;14.65;41.42
50867;BME280;36839;51.946;21.002;2023-05-10T07:51:12;100697.40;;;14.68;42.60
50867;BME280;36839;51.946;21.002;2023-05-10T07:53:40;100698.45;;;14.78;41.23
50867;BME280;36839;51.946;21.002;2023-05-10T07:56:24;100695.30;;;14.85;42.11
50867;BME280;36839;51.946;21.002;2023-05-10T07:58:56;100699.41;;;14.96;40.78
50867;BME280;36839;51.946;21.002;2023-05-10T08:01:23;100691.60;;;14.98;39.71
50867;BME280;36839;51.946;21.002;2023-05-10T08:03:52;100687.32;;;14.98;38.41
50867;BME280;36839;51.946;21.002;2023-05-10T08:06:21;100687.74;;;15.02;39.93
50867;BME280;36839;51.946;21.002;2023-05-10T08:08:51;100693.24;;;15.11;39.16
50867;BME280;36839;51.946;21.002;2023-05-10T08:11:23;100692.08;;;15.10;37.29
50867;BME280;36839;51.946;21.002;2023-05-10T08:13:51;100689.44;;;15.05;36.44
50867;BME280;36839;51.946;21.002;2023-05-10T08:16:19;100685.14;;;15.09;36.09
50867;BME280;36839;51.946;21.002;2023-05-10T08:18:48;100683.27;;;15.09;35.00
50867;BME280;36839;51.946;21.002;2023-05-10T08:21:16;100684.83;;;15.13;36.44
50867;BME280;36839;51.946;21.002;2023-05-10T08:23:45;100682.73;;;15.18;36.41
50867;BME280;36839;51.946;21.002;2023-05-10T08:26:13;100683.55;;;15.28;36.56
50867;BME280;36839;51.946;21.002;2023-05-10T08:28:40;100683.27;;;15.34;36.67
50867;BME280;36839;51.946;21.002;2023-05-10T08:31:09;100681.09;;;15.41;36.72
50867;BME280;36839;51.946;21.002;2023-05-10T08:33:37;100671.99;;;15.46;37.04
50867;BME280;36839;51.946;21.002;2023-05-10T08:36:05;100675.08;;;15.49;36.79
50867;BME280;36839;51.946;21.002;2023-05-10T08:38:35;100679.27;;;15.53;37.18
50867;BME280;36839;51.946;21.002;2023-05-10T08:41:05;100678.31;;;15.62;38.05
50867;BME280;36839;51.946;21.002;2023-05-10T08:43:35;100676.42;;;15.62;37.25
50867;BME280;36839;51.946;21.002;2023-05-10T08:46:07;100679.15;;;15.64;36.96
50867;BME280;36839;51.946;21.002;2023-05-10T08:48:37;100678.05;;;15.68;37.28
50867;BME280;36839;51.946;21.002;2023-05-10T08:51:06;100679.65;;;15.74;36.87
50867;BME280;36839;51.946;21.002;2023-05-10T08:53:37;100674.89;;;15.89;38.76
50867;BME280;36839;51.946;21.002;2023-05-10T08:56:09;100674.63;;;16.01;37.99
50867;BME280;36839;51.946;21.002;2023-05-10T08:58:37;100674.15;;;16.09;36.95
50867;BME280;36839;51.946;21.002;2023-05-10T09:01:05;100662.83;;;16.06;35.58
50867;BME280;36839;51.946;21.002;2023-05-10T09:03:34;100669.50;;;16.13;36.55
50867;BME280;36839;51.946;21.002;2023-05-10T09:06:05;100676.00;;;16.15;36.03
50867;BME280;36839;51.946;21.002;2023-05-10T09:08:36;100664.11;;;16.20;35.27
50867;BME280;36839;51.946;21.002;2023-05-10T09:11:12;100669.30;;;16.29;36.19
50867;BME280;36839;51.946;21.002;2023-05-10T09:13:42;100665.85;;;16.37;35.18
50867;BME280;36839;51.946;21.002;2023-05-10T09:16:10;100670.55;;;16.44;35.88
50867;BME280;36839;51.946;21.002;2023-05-10T09:18:40;100663.17;;;16.50;35.39
50867;BME280;36839;51.946;21.002;2023-05-10T09:21:10;100664.16;;;16.59;36.69
50867;BME280;36839;51.946;21.002;2023-05-10T09:23:44;100670.36;;;16.59;34.55
50867;BME280;36839;51.946;21.002;2023-05-10T09:26:13;100667.20;;;16.66;36.00
50867;BME280;36839;51.946;21.002;2023-05-10T09:28:55;100662.09;;;16.78;36.03
50867;BME280;36839;51.946;21.002;2023-05-10T09:31:50;100660.23;;;16.88;34.23
50867;BME280;36839;51.946;21.002;2023-05-10T09:34:20;100656.49;;;16.75;32.26
50867;BME280;36839;51.946;21.002;2023-05-10T09:36:55;100654.98;;;16.69;32.76
50867;BME280;36839;51.946;21.002;2023-05-10T09:39:31;100657.27;;;16.76;33.76
50867;BME280;36839;51.946;21.002;2023-05-10T09:42:02;100667.46;;;16.81;33.67
50867;BME280;36839;51.946;21.002;2023-05-10T09:44:36;100660.04;;;16.77;32.06
50867;BME280;36839;51.946;21.002;2023-05-10T09:47:08;100657.13;;;16.73;31.65
50867;BME280;36839;51.946;21.002;2023-05-10T09:49:36;100648.83;;;16.73;32.15
50867;BME280;36839;51.946;21.002;2023-05-10T09:52:07;100651.73;;;16.84;33.41
50867;BME280;36839;51.946;21.002;2023-05-10T09:54:52;100664.63;;;16.88;32.65
50867;BME280;36839;51.946;21.002;2023-05-10T09:57:22;100662.51;;;16.96;33.43
50867;BME280;36839;51.946;21.002;2023-05-10T09:59:54;100659.80;;;17.05;31.80
50867;BME280;36839;51.946;21.002;2023-05-10T10:02:21;100658.55;;;17.13;32.93
50867;BME280;36839;51.946;21.002;2023-05-10T10:04:58;100661.08;;;17.27;33.77
50867;BME280;36839;51.946;21.002;2023-05-10T10:07:27;100658.23;;;17.29;32.91
50867;BME280;36839;51.946;21.002;2023-05-10T10:09:58;100644.68;;;17.35;32.70
50867;BME280;36839;51.946;21.002;2023-05-10T10:12:26;100641.94;;;17.48;34.62
50867;BME280;36839;51.946;21.002;2023-05-10T10:15:08;100650.53;;;17.60;32.99
50867;BME280;36839;51.946;21.002;2023-05-10T10:17:37;100646.73;;;17.61;32.46
50867;BME280;36839;51.946;21.002;2023-05-10T10:20:09;100637.60;;;17.59;33.21
50867;BME280;36839;51.946;21.002;2023-05-10T10:22:40;100628.81;;;17.64;33.89
50867;BME280;36839;51.946;21.002;2023-05-10T10:25:08;100629.65;;;17.66;32.16
50867;BME280;36839;51.946;21.002;2023-05-10T10:28:21;100638.70;;;17.77;33.93
50867;BME280;36839;51.946;21.002;2023-05-10T10:30:54;100639.95;;;17.82;33.37
50867;BME280;36839;51.946;21.002;2023-05-10T10:33:54;100628.67;;;17.81;30.98
50867;BME280;36839;51.946;21.002;2023-05-10T10:36:24;100628.02;;;17.95;33.22
50867;BME280;36839;51.946;21.002;2023-05-10T10:41:36;100629.85;;;18.31;34.03
50867;BME280;36839;51.946;21.002;2023-05-10T10:50:03;100622.92;;;18.17;31.09
50867;BME280;36839;51.946;21.002;2023-05-10T10:55:08;100619.88;;;17.99;30.36
50867;BME280;36839;51.946;21.002;2023-05-10T11:00:27;100614.39;;;18.16;31.92
50867;BME280;36839;51.946;21.002;2023-05-10T11:03:23;100610.29;;;18.28;31.61
50867;BME280;36839;51.946;21.002;2023-05-10T11:05:58;100614.04;;;18.25;29.92
50867;BME280;36839;51.946;21.002;2023-05-10T11:08:43;100616.88;;;18.23;30.57
50867;BME280;36839;51.946;21.002;2023-05-10T11:11:14;100607.80;;;18.23;30.53
50867;BME280;36839;51.946;21.002;2023-05-10T11:13:45;100602.48;;;18.26;30.55
50867;BME280;36839;51.946;21.002;2023-05-10T11:16:14;100602.73;;;18.30;31.71
50867;BME280;36839;51.946;21.002;2023-05-10T11:21:23;100599.14;;;18.29;30.77
50867;BME280;36839;51.946;21.002;2023-05-10T11:23:52;100600.78;;;18.38;31.57
50867;BME280;36839;51.946;21.002;2023-05-10T11:26:31;100597.86;;;18.36;31.45
50867;BME280;36839;51.946;21.002;2023-05-10T11:29:02;100597.91;;;18.36;31.42
50867;BME280;36839;51.946;21.002;2023-05-10T11:31:32;100595.98;;;18.40;30.22
50867;BME280;36839;51.946;21.002;2023-05-10T11:34:00;100595.80;;;18.43;30.15
50867;BME280;36839;51.946;21.002;2023-05-10T11:36:35;100601.95;;;18.51;30.50
50867;BME280;36839;51.946;21.002;2023-05-10T11:39:03;100594.11;;;18.67;31.94
50867;BME280;36839;51.946;21.002;2023-05-10T11:41:37;100600.73;;;18.55;28.94
50867;BME280;36839;51.946;21.002;2023-05-10T11:44:05;100599.64;;;18.56;29.72
50867;BME280;36839;51.946;21.002;2023-05-10T11:46:34;100593.28;;;18.61;30.35
50867;BME280;36839;51.946;21.002;2023-05-10T11:49:06;100592.88;;;18.74;30.90
50867;BME280;36839;51.946;21.002;2023-05-10T11:51:35;100589.88;;;18.73;29.07
50867;BME280;36839;51.946;21.002;2023-05-10T11:54:07;100585.74;;;18.66;29.54
50867;BME280;36839;51.946;21.002;2023-05-10T11:56:40;100585.19;;;18.73;30.49
50867;BME280;36839;51.946;21.002;2023-05-10T11:59:09;100593.10;;;18.86;29.96
50867;BME280;36839;51.946;21.002;2023-05-10T12:01:42;100592.66;;;18.85;28.50
50867;BME280;36839;51.946;21.002;2023-05-10T12:04:11;100585.00;;;18.90;29.69
50867;BME280;36839;51.946;21.002;2023-05-10T12:06:41;100583.42;;;19.08;30.85
50867;BME280;36839;51.946;21.002;2023-05-10T12:09:11;100590.20;;;19.12;30.16
50867;BME280;36839;51.946;21.002;2023-05-10T12:11:41;100584.16;;;19.15;29.37
50867;BME280;36839;51.946;21.002;2023-05-10T12:14:13;100588.07;;;19.17;29.20
50867;BME280;36839;51.946;21.002;2023-05-10T12:16:43;100581.19;;;19.30;28.64
50867;BME280;36839;51.946;21.002;2023-05-10T12:19:10;100579.64;;;19.46;29.90
50867;BME280;36839;51.946;21.002;2023-05-10T12:21:37;100583.28;;;19.57;28.75
50867;BME280;36839;51.946;21.002;2023-05-10T12:24:07;100576.04;;;19.51;28.33
50867;BME280;36839;51.946;21.002;2023-05-10T12:26:36;100574.99;;;19.50;29.47
50867;BME280;36839;51.946;21.002;2023-05-10T12:29:19;100578.96;;;19.66;30.24
50867;BME280;36839;51.946;21.002;2023-05-10T12:31:55;100573.79;;;19.77;29.98
50867;BME280;36839;51.946;21.002;2023-05-10T12:34:34;100573.30;;;19.78;29.37
50867;BME280;36839;51.946;21.002;2023-05-10T12:37:04;100572.84;;;19.70;28.36
50867;BME280;36839;51.946;21.002;2023-05-10T12:39:43;100568.08;;;19.60;27.29
50867;BME280;36839;51.946;21.002;2023-05-10T12:42:12;100571.23;;;19.53;28.61
50867;BME280;36839;51.946;21.002;2023-05-10T12:44:49;100576.02;;;19.46;28.23
50867;BME280;36839;51.946;21.002;2023-05-10T12:47:28;100565.19;;;19.63;29.86
50867;BME280;36839;51.946;21.002;2023-05-10T12:49:57;100567.03;;;19.76;28.82
50867;BME280;36839;51.946;21.002;2023-05-10T12:52:37;100565.51;;;19.74;28.20
50867;BME280;36839;51.946;21.002;2023-05-10T12:55:06;100559.89;;;19.73;28.22
50867;BME280;36839;51.946;21.002;2023-05-10T12:57:33;100563.76;;;19.76;28.37
50867;BME280;36839;51.946;21.002;2023-05-10T13:00:04;100564.10;;;19.96;28.41
50867;BME280;36839;51.946;21.002;2023-05-10T13:02:32;100560.80;;;20.04;28.90
50867;BME280;36839;51.946;21.002;2023-05-10T13:05:00;100558.30;;;20.15;30.05
50867;BME280;36839;51.946;21.002;2023-05-10T13:07:28;100544.94;;;20.21;28.18
50867;BME280;36839;51.946;21.002;2023-05-10T13:09:59;100550.27;;;20.17;27.87
50867;BME280;36839;51.946;21.002;2023-05-10T13:12:28;100540.75;;;20.28;28.23
50867;BME280;36839;51.946;21.002;2023-05-10T13:14:57;100547.38;;;20.28;27.95
50867;BME280;36839;51.946;21.002;2023-05-10T13:17:26;100547.05;;;20.06;26.22
50867;BME280;36839;51.946;21.002;2023-05-10T13:19:55;100548.45;;;20.07;26.54
50867;BME280;36839;51.946;21.002;2023-05-10T13:22:22;100548.85;;;20.20;27.58
50867;BME280;36839;51.946;21.002;2023-05-10T13:24:49;100544.78;;;20.29;27.89
50867;BME280;36839;51.946;21.002;2023-05-10T13:27:29;100541.69;;;20.34;28.49
50867;BME280;36839;51.946;21.002;2023-05-10T13:29:57;100542.02;;;20.46;28.57
50867;BME280;36839;51.946;21.002;2023-05-10T13:32:37;100530.01;;;20.36;26.57
50867;BME280;36839;51.946;21.002;2023-05-10T13:35:12;100541.39;;;20.46;28.26
50867;BME280;36839;51.946;21.002;2023-05-10T13:37:40;100540.18;;;20.66;28.61
50867;BME280;36839;51.946;21.002;2023-05-10T13:40:08;100540.41;;;20.83;28.23
50867;BME280;36839;51.946;21.002;2023-05-10T13:42:37;100535.45;;;21.11;28.22